Address 0x0837976971b6d2c22a40f000ecc974124985e0cc

 
Txn Hash
Block
From
To
Value [Txn Fee]
0xccc8d03abc8edc4dfe1b9e754f6f4cbba81a104590f4421a14268946e197f2e575881512021-05-21 1:12:0827 days 22 hrs ago0x0837976971b6d2c22a40f000ecc974124985e0ccOUT BUSD-T Stablecoin0 BNB0.0003648827
0x8c964b0ab4a4522abf9575c8e1fae44e13c41f411612893b1dbe0de59de013bd75170502021-05-18 13:23:4730 days 10 hrs ago0x0837976971b6d2c22a40f000ecc974124985e0ccOUT PancakeSwap: Router v22 BNB0.0005470056
0x9cd5d1666cfa3b9bd14797328ce22cf01d537fdc2ed5c4b98628d171d850c97474752092021-05-17 1:53:1431 days 22 hrs ago0x0837976971b6d2c22a40f000ecc974124985e0ccOUT 0xcde540d7eafe93ac5fe6233bee57e1270d3e330f0 BNB0.0008303208
0x570d67fe65faf4bbf07a1fe348948f9e1818a82bae31a99c8401ff588490df3074752032021-05-17 1:52:5631 days 22 hrs ago0x0837976971b6d2c22a40f000ecc974124985e0ccOUT 0x13c2aa888aacb66f5262397ee90a3ddbde2031f80 BNB0.0002270775
0xfb90d3bda6ca55c04c06b0a7aac0de2eaa6d32f87895e3afc61c5c5f193640a174600792021-05-16 13:04:5932 days 10 hrs ago0x0837976971b6d2c22a40f000ecc974124985e0ccOUT 0xcde540d7eafe93ac5fe6233bee57e1270d3e330f4 BNB0.000753915
0xe64f4da3c943227b019e68a28876b06ad74aabd133a099b7add9a871b7d705ec74599622021-05-16 12:59:0732 days 10 hrs ago0x0837976971b6d2c22a40f000ecc974124985e0ccOUT0x74e9079759c0c48f097b3bf77e1157b4dd5928ab4 BNB0.0001071
0x52eda01ed1a100ffff818c44513202634b3b946a72b82cb7908b7aca37c8056374202622021-05-15 3:08:3533 days 20 hrs ago0x0837976971b6d2c22a40f000ecc974124985e0ccOUT PancakeSwap: Router v20 BNB0.0008792655
0xd918e6a9b7b16a4d5c038bda2ecf89b5aec56f507dccdc313bfc7b86a58dc58274202562021-05-15 3:08:1733 days 20 hrs ago0x0837976971b6d2c22a40f000ecc974124985e0ccOUT PancakeSwap: Router v20 BNB0.0008792655
0xa759edd488ef783e005b033a9366809a52110c095b4de717558b73316ef8d1e774202402021-05-15 3:07:2933 days 20 hrs ago0x0837976971b6d2c22a40f000ecc974124985e0ccOUT PancakeSwap: Router v20 BNB0.0008792655
0xba48cb83cfe2b885ef7d6aa956ed3a6c19194864e62ea08ec4ce2b336ac513d074202292021-05-15 3:06:5633 days 20 hrs ago0x0837976971b6d2c22a40f000ecc974124985e0ccOUT PancakeSwap: Router v20 BNB0.0008792655
0x6d11656dbd8d755d8d9f3507b3db7ce09212eee8e069ca6da82dabec86212c3874202132021-05-15 3:06:0833 days 20 hrs ago0x0837976971b6d2c22a40f000ecc974124985e0ccOUT PancakeSwap: Router v20 BNB0.0008792655
0xd83e1d08cef60931072f8378d9ba35c9ab6bd7c1f38a0a7b9db803ef81d8617974201982021-05-15 3:05:2333 days 20 hrs ago0x0837976971b6d2c22a40f000ecc974124985e0ccOUT PancakeSwap: Router v20 BNB0.000862025
0xa4a493bba118aff377897699daa8926da0d30a0b743e5b99a595fc1a4fa2089d74201632021-05-15 3:03:3833 days 20 hrs ago0x0837976971b6d2c22a40f000ecc974124985e0ccOUT PancakeSwap: Router v20 BNB0.0008792655
0x52d307b8d6a3887fda85a48f4b0670e233f15a2c1b79f6f03b94ebc2022984eb74201582021-05-15 3:03:2333 days 20 hrs ago0x0837976971b6d2c22a40f000ecc974124985e0ccOUT PancakeSwap: Router v20 BNB0.0008792655
0x0e0b3de4ea9c9fcc3f628c7bbc029e1f5f2e2a0bc0700ea65d0a58945d6b61ba74201542021-05-15 3:03:1133 days 20 hrs ago0x0837976971b6d2c22a40f000ecc974124985e0ccOUT 0x6480f41f624de82b1854780204b9d2ab7dd877cd0 BNB0.0002270775
0x1270687f67cfb47746851017b12aee2a02a24123475d79084de5093eade72f0873217342021-05-11 13:29:5537 days 10 hrs ago0x0837976971b6d2c22a40f000ecc974124985e0ccOUT PancakeSwap: Router v21.8 BNB0.0017683908
0x0762f4e3eeb23cc46578f2b50a51f04d9f8749883d663ead6e42f777871fcb6673216942021-05-11 13:27:3937 days 10 hrs ago0x0837976971b6d2c22a40f000ecc974124985e0ccOUT PancakeSwap: Router v22 BNB0.0019498908
0x50ed8861c7751a399d1384bb10440eb9f21979cf35c8813c543e7ff8a14ebdec73212542021-05-11 13:03:0437 days 10 hrs ago0x49437e553c544345e1f42adda91435800029117b IN 0x0837976971b6d2c22a40f000ecc974124985e0cc2 BNB0.0002541
0x610f2eb5b9a59d52097f96f6556dcbcab03ed1795c978a31b1463fab0bb339a473212062021-05-11 13:00:2537 days 10 hrs ago0x49437e553c544345e1f42adda91435800029117b IN 0x0837976971b6d2c22a40f000ecc974124985e0cc2 BNB0.0002541
0xf9eae2ead74b501659129f6530c4cadf425d02df0468beea28fea298720086e272415342021-05-08 11:54:1740 days 12 hrs ago0x0837976971b6d2c22a40f000ecc974124985e0ccOUT 0x6480f41f624de82b1854780204b9d2ab7dd877cd0 BNB0.0002946933
0xc004171f083ca456cabf29ff1992e157a39999a5bb1940b8505516c8625224e771137992021-05-03 23:25:0345 days 31 mins ago0x0837976971b6d2c22a40f000ecc974124985e0ccOUT PancakeSwap: Router v20.3 BNB0.0007602264
0x7ebb297d496f59d0ec9225df4e6c31cf6ad8ae5379f772b5ca8b68cbd0ea591e71125182021-05-03 22:20:0645 days 1 hr ago0x7a2f96c26747041f4b1ff8bb7deb88b540119553 IN 0x0837976971b6d2c22a40f000ecc974124985e0cc0.3 BNB0.0001071
0x3e6d6e555b26bab1c6be9f2be20b894da5bc6bd8e1eb23884a7e1433ec7b3ff670799532021-05-02 18:51:4446 days 5 hrs ago0x0837976971b6d2c22a40f000ecc974124985e0ccOUT BUSD-T Stablecoin0 BNB0.0001842477
0x1756a79f42ced5f0564d8a60289f6ff77b8c243c632e3867e08343cf39ccb46b70798282021-05-02 18:44:4446 days 5 hrs ago0x0837976971b6d2c22a40f000ecc974124985e0ccOUT PancakeSwap: Router0 BNB0.0008307798
0xaae9bb627cf1cc031922cbf9519deb5dadf68c5930a2cc157188583b05a2bec368059602021-04-23 4:45:5255 days 19 hrs ago0x0837976971b6d2c22a40f000ecc974124985e0ccOUT 0x3d1db4a23ba2723e4cd0a3db716a14aaa6b006190 BNB0.000222145
[ Download CSV Export 
Latest 9 internal transactions
Parent Txn Hash Block From To Value
0x9cd5d1666cfa3b9bd14797328ce22cf01d537fdc2ed5c4b98628d171d850c97474752092021-05-17 1:53:1431 days 22 hrs ago 0xcde540d7eafe93ac5fe6233bee57e1270d3e330f0x0837976971b6d2c22a40f000ecc974124985e0cc2.022782416027086023 BNB
0x52eda01ed1a100ffff818c44513202634b3b946a72b82cb7908b7aca37c8056374202622021-05-15 3:08:3533 days 20 hrs ago PancakeSwap: Router v20x0837976971b6d2c22a40f000ecc974124985e0cc0.650073616891507637 BNB
0xd918e6a9b7b16a4d5c038bda2ecf89b5aec56f507dccdc313bfc7b86a58dc58274202562021-05-15 3:08:1733 days 20 hrs ago PancakeSwap: Router v20x0837976971b6d2c22a40f000ecc974124985e0cc0.76649888069257905 BNB
0xa759edd488ef783e005b033a9366809a52110c095b4de717558b73316ef8d1e774202402021-05-15 3:07:2933 days 20 hrs ago PancakeSwap: Router v20x0837976971b6d2c22a40f000ecc974124985e0cc0.851053335434995668 BNB
0xba48cb83cfe2b885ef7d6aa956ed3a6c19194864e62ea08ec4ce2b336ac513d074202292021-05-15 3:06:5633 days 20 hrs ago PancakeSwap: Router v20x0837976971b6d2c22a40f000ecc974124985e0cc1.037607157477127257 BNB
0x6d11656dbd8d755d8d9f3507b3db7ce09212eee8e069ca6da82dabec86212c3874202132021-05-15 3:06:0833 days 20 hrs ago PancakeSwap: Router v20x0837976971b6d2c22a40f000ecc974124985e0cc1.291891527197667004 BNB
0xd83e1d08cef60931072f8378d9ba35c9ab6bd7c1f38a0a7b9db803ef81d8617974201982021-05-15 3:05:2333 days 20 hrs ago PancakeSwap: Router v20x0837976971b6d2c22a40f000ecc974124985e0cc0.856550628415150942 BNB
0xa4a493bba118aff377897699daa8926da0d30a0b743e5b99a595fc1a4fa2089d74201632021-05-15 3:03:3833 days 20 hrs ago PancakeSwap: Router v20x0837976971b6d2c22a40f000ecc974124985e0cc1.183828386337393073 BNB
0x52d307b8d6a3887fda85a48f4b0670e233f15a2c1b79f6f03b94ebc2022984eb74201582021-05-15 3:03:2333 days 20 hrs ago PancakeSwap: Router v20x0837976971b6d2c22a40f000ecc974124985e0cc1.198561113686300698 BNB
[ Download CSV Export 
Loading

Contract Name:
0 BNB

Compiler Version
0

Optimization Enabled:
0 BNB

Other Settings:
-NA-
Block Transaction Gas Used Reward
Age Block Fee Address BC Fee Address Voting Power Jailed Incoming
Block Uncle Number Difficulty Gas Used Reward
Loading
Loading
Make sure to use the "Vote Down" button for any spammy posts, and the "Vote Up" for interesting conversations.